sensor_id;sensor_type;location;lat;lon;timestamp;temperature;humidity
9125;DHT22;4597;48.730;9.114;2023-08-08T00:01:30;15.90;99.90
9125;DHT22;4597;48.730;9.114;2023-08-08T00:03:55;15.90;99.90
9125;DHT22;4597;48.730;9.114;2023-08-08T00:06:21;15.90;99.90
9125;DHT22;4597;48.730;9.114;2023-08-08T00:08:46;15.90;99.90
9125;DHT22;4597;48.730;9.114;2023-08-08T00:11:12;15.80;99.90
9125;DHT22;4597;48.730;9.114;2023-08-08T00:13:37;15.80;99.90
9125;DHT22;4597;48.730;9.114;2023-08-08T00:16:03;15.80;99.90
9125;DHT22;4597;48.730;9.114;2023-08-08T00:18:29;15.80;99.90
9125;DHT22;4597;48.730;9.114;2023-08-08T00:20:54;15.70;99.90
9125;DHT22;4597;48.730;9.114;2023-08-08T00:23:20;15.70;99.90
9125;DHT22;4597;48.730;9.114;2023-08-08T00:25:45;15.80;99.90
9125;DHT22;4597;48.730;9.114;2023-08-08T00:28:15;15.70;99.90
9125;DHT22;4597;48.730;9.114;2023-08-08T00:30:41;15.70;99.90
9125;DHT22;4597;48.730;9.114;2023-08-08T00:33:07;15.80;99.90
9125;DHT22;4597;48.730;9.114;2023-08-08T00:35:32;15.70;99.90
9125;DHT22;4597;48.730;9.114;2023-08-08T00:37:58;15.70;99.90
9125;DHT22;4597;48.730;9.114;2023-08-08T00:40:23;15.70;99.90
9125;DHT22;4597;48.730;9.114;2023-08-08T00:42:49;15.80;99.90
9125;DHT22;4597;48.730;9.114;2023-08-08T00:45:14;15.70;99.90
9125;DHT22;4597;48.730;9.114;2023-08-08T00:47:40;15.70;99.90
9125;DHT22;4597;48.730;9.114;2023-08-08T00:50:06;15.70;99.90
9125;DHT22;4597;48.730;9.114;2023-08-08T00:52:32;15.60;99.90
9125;DHT22;4597;48.730;9.114;2023-08-08T00:54:57;15.60;99.90
9125;DHT22;4597;48.730;9.114;2023-08-08T00:57:24;15.60;99.90
9125;DHT22;4597;48.730;9.114;2023-08-08T00:59:50;15.50;99.90
9125;DHT22;4597;48.730;9.114;2023-08-08T01:02:16;15.50;99.90
9125;DHT22;4597;48.730;9.114;2023-08-08T01:04:42;15.50;99.90
9125;DHT22;4597;48.730;9.114;2023-08-08T01:07:30;15.50;99.90
9125;DHT22;4597;48.730;9.114;2023-08-08T01:10:09;15.50;99.90
9125;DHT22;4597;48.730;9.114;2023-08-08T01:12:40;15.50;99.90
9125;DHT22;4597;48.730;9.114;2023-08-08T01:15:07;15.50;99.90
9125;DHT22;4597;48.730;9.114;2023-08-08T01:17:35;15.60;99.90
9125;DHT22;4597;48.730;9.114;2023-08-08T01:20:05;15.50;99.90
9125;DHT22;4597;48.730;9.114;2023-08-08T01:22:37;15.60;99.90
9125;DHT22;4597;48.730;9.114;2023-08-08T01:25:04;15.60;99.90
9125;DHT22;4597;48.730;9.114;2023-08-08T01:27:30;15.60;99.90
9125;DHT22;4597;48.730;9.114;2023-08-08T01:29:56;15.70;99.90
9125;DHT22;4597;48.730;9.114;2023-08-08T01:32:21;15.70;99.90
9125;DHT22;4597;48.730;9.114;2023-08-08T01:34:47;15.70;99.90
9125;DHT22;4597;48.730;9.114;2023-08-08T01:37:31;15.70;99.90
9125;DHT22;4597;48.730;9.114;2023-08-08T01:39:59;15.70;99.90
9125;DHT22;4597;48.730;9.114;2023-08-08T01:42:26;15.70;99.90
9125;DHT22;4597;48.730;9.114;2023-08-08T01:44:53;15.70;99.90
9125;DHT22;4597;48.730;9.114;2023-08-08T01:47:18;15.60;99.90
9125;DHT22;4597;48.730;9.114;2023-08-08T01:49:44;15.60;99.90
9125;DHT22;4597;48.730;9.114;2023-08-08T01:52:09;15.50;99.90
9125;DHT22;4597;48.730;9.114;2023-08-08T01:54:35;15.50;99.90
9125;DHT22;4597;48.730;9.114;2023-08-08T01:57:00;15.40;99.90
9125;DHT22;4597;48.730;9.114;2023-08-08T01:59:26;15.30;99.90
9125;DHT22;4597;48.730;9.114;2023-08-08T02:01:51;15.30;99.90
9125;DHT22;4597;48.730;9.114;2023-08-08T02:04:17;15.20;99.90
9125;DHT22;4597;48.730;9.114;2023-08-08T02:06:42;15.20;99.90
9125;DHT22;4597;48.730;9.114;2023-08-08T02:09:08;15.10;99.90
9125;DHT22;4597;48.730;9.114;2023-08-08T02:11:33;15.00;99.90
9125;DHT22;4597;48.730;9.114;2023-08-08T02:13:59;15.00;99.90
9125;DHT22;4597;48.730;9.114;2023-08-08T02:16:24;15.00;99.90
9125;DHT22;4597;48.730;9.114;2023-08-08T02:18:50;14.90;99.90
9125;DHT22;4597;48.730;9.114;2023-08-08T02:21:15;14.90;99.90
9125;DHT22;4597;48.730;9.114;2023-08-08T02:23:41;14.90;99.90
9125;DHT22;4597;48.730;9.114;2023-08-08T02:26:06;14.90;99.90
9125;DHT22;4597;48.730;9.114;2023-08-08T02:28:32;14.90;99.90
9125;DHT22;4597;48.730;9.114;2023-08-08T02:30:57;14.90;99.90
9125;DHT22;4597;48.730;9.114;2023-08-08T02:33:23;14.80;99.90
9125;DHT22;4597;48.730;9.114;2023-08-08T02:35:49;14.80;99.90
9125;DHT22;4597;48.730;9.114;2023-08-08T02:38:14;14.70;99.90
9125;DHT22;4597;48.730;9.114;2023-08-08T02:40:39;14.70;99.90
9125;DHT22;4597;48.730;9.114;2023-08-08T02:43:05;14.70;99.90
9125;DHT22;4597;48.730;9.114;2023-08-08T02:45:31;14.70;99.90
9125;DHT22;4597;48.730;9.114;2023-08-08T02:47:56;14.70;99.90
9125;DHT22;4597;48.730;9.114;2023-08-08T02:50:22;14.70;99.90
9125;DHT22;4597;48.730;9.114;2023-08-08T02:52:47;14.80;99.90
9125;DHT22;4597;48.730;9.114;2023-08-08T02:55:13;14.80;99.90
9125;DHT22;4597;48.730;9.114;2023-08-08T02:57:39;14.80;99.90
9125;DHT22;4597;48.730;9.114;2023-08-08T03:00:05;14.70;99.90
9125;DHT22;4597;48.730;9.114;2023-08-08T03:02:31;14.70;99.90
9125;DHT22;4597;48.730;9.114;2023-08-08T03:04:56;14.70;99.90
9125;DHT22;4597;48.730;9.114;2023-08-08T03:07:22;14.70;99.90
9125;DHT22;4597;48.730;9.114;2023-08-08T03:09:47;14.60;99.90
9125;DHT22;4597;48.730;9.114;2023-08-08T03:12:13;14.60;99.90
9125;DHT22;4597;48.730;9.114;2023-08-08T03:14:38;14.60;99.90
9125;DHT22;4597;48.730;9.114;2023-08-08T03:17:04;14.60;99.90
9125;DHT22;4597;48.730;9.114;2023-08-08T03:19:30;14.60;99.90
9125;DHT22;4597;48.730;9.114;2023-08-08T03:21:55;14.60;99.90
9125;DHT22;4597;48.730;9.114;2023-08-08T03:24:21;14.70;99.90
9125;DHT22;4597;48.730;9.114;2023-08-08T03:26:46;14.70;99.90
9125;DHT22;4597;48.730;9.114;2023-08-08T03:29:11;14.70;99.90
9125;DHT22;4597;48.730;9.114;2023-08-08T03:31:38;14.60;99.90
9125;DHT22;4597;48.730;9.114;2023-08-08T03:34:04;14.70;99.90
9125;DHT22;4597;48.730;9.114;2023-08-08T03:36:30;14.60;99.90
9125;DHT22;4597;48.730;9.114;2023-08-08T03:38:55;14.70;99.90
9125;DHT22;4597;48.730;9.114;2023-08-08T03:41:20;14.60;99.90
9125;DHT22;4597;48.730;9.114;2023-08-08T03:43:46;14.60;99.90
9125;DHT22;4597;48.730;9.114;2023-08-08T03:46:11;14.60;99.90
9125;DHT22;4597;48.730;9.114;2023-08-08T03:48:38;14.60;99.90
9125;DHT22;4597;48.730;9.114;2023-08-08T03:51:03;14.50;99.90
9125;DHT22;4597;48.730;9.114;2023-08-08T03:53:29;14.50;99.90
9125;DHT22;4597;48.730;9.114;2023-08-08T03:55:55;14.50;99.90
9125;DHT22;4597;48.730;9.114;2023-08-08T03:58:20;14.50;99.90
9125;DHT22;4597;48.730;9.114;2023-08-08T04:00:46;14.50;99.90
9125;DHT22;4597;48.730;9.114;2023-08-08T04:03:13;14.40;99.90
9125;DHT22;4597;48.730;9.114;2023-08-08T04:05:40;14.40;99.90
9125;DHT22;4597;48.730;9.114;2023-08-08T04:08:06;14.40;99.90
9125;DHT22;4597;48.730;9.114;2023-08-08T04:10:31;14.40;99.90
9125;DHT22;4597;48.730;9.114;2023-08-08T04:12:57;14.50;99.90
9125;DHT22;4597;48.730;9.114;2023-08-08T04:15:22;14.40;99.90
9125;DHT22;4597;48.730;9.114;2023-08-08T04:17:48;14.40;99.90
9125;DHT22;4597;48.730;9.114;2023-08-08T04:20:13;14.40;99.90
9125;DHT22;4597;48.730;9.114;2023-08-08T04:22:39;14.50;99.90
9125;DHT22;4597;48.730;9.114;2023-08-08T04:25:05;14.40;99.90
9125;DHT22;4597;48.730;9.114;2023-08-08T04:27:31;14.40;99.90
9125;DHT22;4597;48.730;9.114;2023-08-08T04:29:57;14.40;99.90
9125;DHT22;4597;48.730;9.114;2023-08-08T04:32:22;14.40;99.90
9125;DHT22;4597;48.730;9.114;2023-08-08T04:34:48;14.40;99.90
9125;DHT22;4597;48.730;9.114;2023-08-08T04:37:13;14.40;99.90
9125;DHT22;4597;48.730;9.114;2023-08-08T04:39:39;14.40;99.90
9125;DHT22;4597;48.730;9.114;2023-08-08T04:42:05;14.30;99.90
9125;DHT22;4597;48.730;9.114;2023-08-08T04:44:30;14.30;99.90
9125;DHT22;4597;48.730;9.114;2023-08-08T04:46:56;14.30;99.90
9125;DHT22;4597;48.730;9.114;2023-08-08T04:49:21;14.30;99.90
9125;DHT22;4597;48.730;9.114;2023-08-08T04:51:47;14.30;99.90
9125;DHT22;4597;48.730;9.114;2023-08-08T04:54:12;14.30;99.90
9125;DHT22;4597;48.730;9.114;2023-08-08T04:56:38;14.30;99.90
9125;DHT22;4597;48.730;9.114;2023-08-08T04:59:03;14.30;99.90
9125;DHT22;4597;48.730;9.114;2023-08-08T05:01:29;14.30;99.90
9125;DHT22;4597;48.730;9.114;2023-08-08T05:03:57;14.30;99.90
9125;DHT22;4597;48.730;9.114;2023-08-08T05:06:22;14.20;99.90
9125;DHT22;4597;48.730;9.114;2023-08-08T05:08:51;14.20;99.90
9125;DHT22;4597;48.730;9.114;2023-08-08T05:11:17;14.20;99.90
9125;DHT22;4597;48.730;9.114;2023-08-08T05:13:43;14.20;99.90
9125;DHT22;4597;48.730;9.114;2023-08-08T05:16:08;14.10;99.90
9125;DHT22;4597;48.730;9.114;2023-08-08T05:18:34;14.10;99.90
9125;DHT22;4597;48.730;9.114;2023-08-08T05:20:59;14.10;99.90
9125;DHT22;4597;48.730;9.114;2023-08-08T05:23:25;14.10;99.90
9125;DHT22;4597;48.730;9.114;2023-08-08T05:25:50;14.10;99.90
9125;DHT22;4597;48.730;9.114;2023-08-08T05:28:16;14.10;99.90
9125;DHT22;4597;48.730;9.114;2023-08-08T05:30:41;14.10;99.90
9125;DHT22;4597;48.730;9.114;2023-08-08T05:33:07;14.10;99.90
9125;DHT22;4597;48.730;9.114;2023-08-08T05:35:33;14.10;99.90
9125;DHT22;4597;48.730;9.114;2023-08-08T05:37:58;14.10;99.90
9125;DHT22;4597;48.730;9.114;2023-08-08T05:40:24;14.10;99.90
9125;DHT22;4597;48.730;9.114;2023-08-08T05:42:49;14.10;99.90
9125;DHT22;4597;48.730;9.114;2023-08-08T05:45:15;14.10;99.90
9125;DHT22;4597;48.730;9.114;2023-08-08T05:47:40;14.20;99.90
9125;DHT22;4597;48.730;9.114;2023-08-08T05:50:06;14.20;99.90
9125;DHT22;4597;48.730;9.114;2023-08-08T05:52:32;14.20;99.90
9125;DHT22;4597;48.730;9.114;2023-08-08T05:54:57;14.20;99.90
9125;DHT22;4597;48.730;9.114;2023-08-08T05:57:25;14.20;99.90
9125;DHT22;4597;48.730;9.114;2023-08-08T05:59:51;14.20;99.90
9125;DHT22;4597;48.730;9.114;2023-08-08T06:02:16;14.20;99.90
9125;DHT22;4597;48.730;9.114;2023-08-08T06:04:42;14.20;99.90
9125;DHT22;4597;48.730;9.114;2023-08-08T06:07:07;14.20;99.90
9125;DHT22;4597;48.730;9.114;2023-08-08T06:09:33;14.20;99.90
9125;DHT22;4597;48.730;9.114;2023-08-08T06:11:58;14.20;99.90
9125;DHT22;4597;48.730;9.114;2023-08-08T06:14:24;14.30;99.90
9125;DHT22;4597;48.730;9.114;2023-08-08T06:16:49;14.30;99.90
9125;DHT22;4597;48.730;9.114;2023-08-08T06:19:15;14.40;99.90
9125;DHT22;4597;48.730;9.114;2023-08-08T06:21:41;14.40;99.90
9125;DHT22;4597;48.730;9.114;2023-08-08T06:24:07;14.40;99.90
9125;DHT22;4597;48.730;9.114;2023-08-08T06:26:33;14.40;99.90
9125;DHT22;4597;48.730;9.114;2023-08-08T06:28:58;14.50;99.90
9125;DHT22;4597;48.730;9.114;2023-08-08T06:31:24;14.50;99.90
9125;DHT22;4597;48.730;9.114;2023-08-08T06:33:49;14.50;99.90
9125;DHT22;4597;48.730;9.114;2023-08-08T06:36:15;14.60;99.90
9125;DHT22;4597;48.730;9.114;2023-08-08T06:38:40;14.70;99.90
9125;DHT22;4597;48.730;9.114;2023-08-08T06:41:06;14.80;99.90
9125;DHT22;4597;48.730;9.114;2023-08-08T06:43:31;14.80;99.90
9125;DHT22;4597;48.730;9.114;2023-08-08T06:45:57;14.90;99.90
9125;DHT22;4597;48.730;9.114;2023-08-08T06:48:23;14.90;99.90
9125;DHT22;4597;48.730;9.114;2023-08-08T06:50:49;15.20;99.90
9125;DHT22;4597;48.730;9.114;2023-08-08T06:53:14;15.30;99.90
9125;DHT22;4597;48.730;9.114;2023-08-08T06:55:40;15.40;99.90
9125;DHT22;4597;48.730;9.114;2023-08-08T06:58:05;15.50;99.90
9125;DHT22;4597;48.730;9.114;2023-08-08T07:00:31;15.60;99.90
9125;DHT22;4597;48.730;9.114;2023-08-08T07:02:56;15.60;99.90
9125;DHT22;4597;48.730;9.114;2023-08-08T07:05:22;15.70;99.90
9125;DHT22;4597;48.730;9.114;2023-08-08T07:07:50;15.70;99.90
9125;DHT22;4597;48.730;9.114;2023-08-08T07:10:15;15.80;99.90
9125;DHT22;4597;48.730;9.114;2023-08-08T07:12:41;15.80;99.90
9125;DHT22;4597;48.730;9.114;2023-08-08T07:15:08;15.90;99.90
9125;DHT22;4597;48.730;9.114;2023-08-08T07:17:34;15.90;99.90
9125;DHT22;4597;48.730;9.114;2023-08-08T07:20:00;16.00;99.90
9125;DHT22;4597;48.730;9.114;2023-08-08T07:22:25;16.00;99.90
9125;DHT22;4597;48.730;9.114;2023-08-08T07:24:51;16.00;99.90
9125;DHT22;4597;48.730;9.114;2023-08-08T07:27:17;16.10;99.90
9125;DHT22;4597;48.730;9.114;2023-08-08T07:29:43;16.10;99.90
9125;DHT22;4597;48.730;9.114;2023-08-08T07:32:08;16.20;99.90
9125;DHT22;4597;48.730;9.114;2023-08-08T07:34:34;16.20;99.90
9125;DHT22;4597;48.730;9.114;2023-08-08T07:37:00;16.30;99.90
9125;DHT22;4597;48.730;9.114;2023-08-08T07:39:25;16.40;99.90
9125;DHT22;4597;48.730;9.114;2023-08-08T07:41:52;16.50;99.90
9125;DHT22;4597;48.730;9.114;2023-08-08T07:44:17;16.60;99.90
9125;DHT22;4597;48.730;9.114;2023-08-08T07:46:43;16.70;99.90
9125;DHT22;4597;48.730;9.114;2023-08-08T07:49:08;16.80;99.90
9125;DHT22;4597;48.730;9.114;2023-08-08T07:51:35;16.90;99.90
9125;DHT22;4597;48.730;9.114;2023-08-08T07:54:00;16.90;99.90
9125;DHT22;4597;48.730;9.114;2023-08-08T07:56:26;17.00;99.90
9125;DHT22;4597;48.730;9.114;2023-08-08T07:58:51;17.00;99.90
9125;DHT22;4597;48.730;9.114;2023-08-08T08:01:17;17.00;99.90
9125;DHT22;4597;48.730;9.114;2023-08-08T08:03:43;17.00;99.90
9125;DHT22;4597;48.730;9.114;2023-08-08T08:06:09;17.10;99.90
9125;DHT22;4597;48.730;9.114;2023-08-08T08:08:34;17.20;99.90
9125;DHT22;4597;48.730;9.114;2023-08-08T08:11:01;17.20;99.90
9125;DHT22;4597;48.730;9.114;2023-08-08T08:13:27;17.20;99.90
9125;DHT22;4597;48.730;9.114;2023-08-08T08:15:52;17.30;99.90
9125;DHT22;4597;48.730;9.114;2023-08-08T08:18:18;17.30;99.90
9125;DHT22;4597;48.730;9.114;2023-08-08T08:20:45;17.40;99.90
9125;DHT22;4597;48.730;9.114;2023-08-08T08:23:10;17.40;99.90
9125;DHT22;4597;48.730;9.114;2023-08-08T08:25:36;17.40;99.90
9125;DHT22;4597;48.730;9.114;2023-08-08T08:28:02;17.40;99.90
9125;DHT22;4597;48.730;9.114;2023-08-08T08:30:27;17.40;99.90
9125;DHT22;4597;48.730;9.114;2023-08-08T08:32:53;17.40;99.90
9125;DHT22;4597;48.730;9.114;2023-08-08T08:35:18;17.50;99.90
9125;DHT22;4597;48.730;9.114;2023-08-08T08:37:44;17.60;99.90
9125;DHT22;4597;48.730;9.114;2023-08-08T08:40:10;17.70;99.90
9125;DHT22;4597;48.730;9.114;2023-08-08T08:42:38;17.80;99.90
9125;DHT22;4597;48.730;9.114;2023-08-08T08:45:04;17.80;99.90
9125;DHT22;4597;48.730;9.114;2023-08-08T08:47:31;17.90;99.90
9125;DHT22;4597;48.730;9.114;2023-08-08T08:49:58;17.90;99.90
9125;DHT22;4597;48.730;9.114;2023-08-08T08:52:24;17.80;99.90
9125;DHT22;4597;48.730;9.114;2023-08-08T08:54:53;17.90;99.90
9125;DHT22;4597;48.730;9.114;2023-08-08T08:57:21;18.00;99.90
9125;DHT22;4597;48.730;9.114;2023-08-08T08:59:46;18.00;99.90
9125;DHT22;4597;48.730;9.114;2023-08-08T09:02:12;18.00;99.90
9125;DHT22;4597;48.730;9.114;2023-08-08T09:04:39;18.10;99.90
9125;DHT22;4597;48.730;9.114;2023-08-08T09:07:06;18.20;99.90
9125;DHT22;4597;48.730;9.114;2023-08-08T09:09:32;18.20;99.90
9125;DHT22;4597;48.730;9.114;2023-08-08T09:11:58;18.30;99.90
9125;DHT22;4597;48.730;9.114;2023-08-08T09:14:25;18.30;99.90
9125;DHT22;4597;48.730;9.114;2023-08-08T09:16:52;18.40;99.90
9125;DHT22;4597;48.730;9.114;2023-08-08T09:19:22;18.40;99.90
9125;DHT22;4597;48.730;9.114;2023-08-08T09:21:50;18.40;99.90
9125;DHT22;4597;48.730;9.114;2023-08-08T09:24:16;18.40;99.90
9125;DHT22;4597;48.730;9.114;2023-08-08T09:26:43;18.40;99.90
9125;DHT22;4597;48.730;9.114;2023-08-08T09:29:11;18.50;99.90
9125;DHT22;4597;48.730;9.114;2023-08-08T09:31:36;18.70;99.90
9125;DHT22;4597;48.730;9.114;2023-08-08T09:34:03;18.70;99.80
9125;DHT22;4597;48.730;9.114;2023-08-08T09:36:29;18.70;98.90
9125;DHT22;4597;48.730;9.114;2023-08-08T09:38:56;18.70;98.20
9125;DHT22;4597;48.730;9.114;2023-08-08T09:41:23;18.70;96.90
9125;DHT22;4597;48.730;9.114;2023-08-08T09:43:50;18.80;96.80
9125;DHT22;4597;48.730;9.114;2023-08-08T09:46:18;18.80;95.70
9125;DHT22;4597;48.730;9.114;2023-08-08T09:48:44;18.90;96.00
9125;DHT22;4597;48.730;9.114;2023-08-08T09:51:10;18.80;95.70
9125;DHT22;4597;48.730;9.114;2023-08-08T09:53:36;18.90;95.50
9125;DHT22;4597;48.730;9.114;2023-08-08T09:56:05;19.00;92.10
9125;DHT22;4597;48.730;9.114;2023-08-08T09:58:31;19.00;91.60
9125;DHT22;4597;48.730;9.114;2023-08-08T10:00:57;19.00;90.30
9125;DHT22;4597;48.730;9.114;2023-08-08T10:03:24;19.10;90.80
9125;DHT22;4597;48.730;9.114;2023-08-08T10:05:49;19.10;89.40
9125;DHT22;4597;48.730;9.114;2023-08-08T10:08:15;19.20;90.80
9125;DHT22;4597;48.730;9.114;2023-08-08T10:10:44;19.40;82.70
9125;DHT22;4597;48.730;9.114;2023-08-08T10:13:10;19.40;80.50
9125;DHT22;4597;48.730;9.114;2023-08-08T10:15:39;19.50;76.10
9125;DHT22;4597;48.730;9.114;2023-08-08T10:18:06;19.40;78.00
9125;DHT22;4597;48.730;9.114;2023-08-08T10:20:32;19.40;80.30
9125;DHT22;4597;48.730;9.114;2023-08-08T10:23:02;19.40;78.70
9125;DHT22;4597;48.730;9.114;2023-08-08T10:25:29;19.50;78.90
9125;DHT22;4597;48.730;9.114;2023-08-08T10:28:06;19.40;80.00
9125;DHT22;4597;48.730;9.114;2023-08-08T10:30:56;19.50;82.40
9125;DHT22;4597;48.730;9.114;2023-08-08T10:33:27;19.50;82.60
9125;DHT22;4597;48.730;9.114;2023-08-08T10:38:23;19.60;75.70
9125;DHT22;4597;48.730;9.114;2023-08-08T10:40:57;19.70;78.50
9125;DHT22;4597;48.730;9.114;2023-08-08T10:43:27;19.60;76.20
9125;DHT22;4597;48.730;9.114;2023-08-08T10:46:00;19.50;74.10
9125;DHT22;4597;48.730;9.114;2023-08-08T10:48:26;19.50;77.20
9125;DHT22;4597;48.730;9.114;2023-08-08T10:50:55;19.60;78.10
9125;DHT22;4597;48.730;9.114;2023-08-08T10:53:27;19.70;75.60
9125;DHT22;4597;48.730;9.114;2023-08-08T10:56:03;19.60;78.60
9125;DHT22;4597;48.730;9.114;2023-08-08T10:58:40;19.70;78.00
9125;DHT22;4597;48.730;9.114;2023-08-08T11:01:07;19.80;79.30
9125;DHT22;4597;48.730;9.114;2023-08-08T11:03:38;19.90;76.70
9125;DHT22;4597;48.730;9.114;2023-08-08T11:06:06;19.90;74.80
9125;DHT22;4597;48.730;9.114;2023-08-08T11:08:32;19.90;74.70
9125;DHT22;4597;48.730;9.114;2023-08-08T11:10:58;20.00;75.20
9125;DHT22;4597;48.730;9.114;2023-08-08T11:13:24;20.00;74.80
9125;DHT22;4597;48.730;9.114;2023-08-08T11:15:50;20.10;76.10
9125;DHT22;4597;48.730;9.114;2023-08-08T11:18:16;20.10;74.00
9125;DHT22;4597;48.730;9.114;2023-08-08T11:20:42;20.20;76.30
9125;DHT22;4597;48.730;9.114;2023-08-08T11:23:08;20.20;73.40
9125;DHT22;4597;48.730;9.114;2023-08-08T11:25:36;20.20;74.70
9125;DHT22;4597;48.730;9.114;2023-08-08T11:28:02;20.30;69.80
9125;DHT22;4597;48.730;9.114;2023-08-08T11:30:32;20.20;70.90
9125;DHT22;4597;48.730;9.114;2023-08-08T11:33:00;20.20;70.80
9125;DHT22;4597;48.730;9.114;2023-08-08T11:35:26;20.20;74.20
9125;DHT22;4597;48.730;9.114;2023-08-08T11:37:53;20.40;70.20
9125;DHT22;4597;48.730;9.114;2023-08-08T11:40:20;20.50;73.10
9125;DHT22;4597;48.730;9.114;2023-08-08T11:42:47;20.50;72.10
9125;DHT22;4597;48.730;9.114;2023-08-08T11:45:15;20.50;65.20
9125;DHT22;4597;48.730;9.114;2023-08-08T11:47:41;20.50;62.80
9125;DHT22;4597;48.730;9.114;2023-08-08T11:50:09;20.60;61.70
9125;DHT22;4597;48.730;9.114;2023-08-08T11:52:42;20.70;60.30
9125;DHT22;4597;48.730;9.114;2023-08-08T11:55:11;20.80;61.30
9125;DHT22;4597;48.730;9.114;2023-08-08T11:57:38;20.90;61.30
9125;DHT22;4597;48.730;9.114;2023-08-08T12:00:06;21.00;57.20
9125;DHT22;4597;48.730;9.114;2023-08-08T12:02:33;20.90;59.30
9125;DHT22;4597;48.730;9.114;2023-08-08T12:05:06;21.00;56.40
9125;DHT22;4597;48.730;9.114;2023-08-08T12:07:32;21.10;57.30
9125;DHT22;4597;48.730;9.114;2023-08-08T12:09:59;21.20;56.30
9125;DHT22;4597;48.730;9.114;2023-08-08T12:12:26;21.30;55.00
9125;DHT22;4597;48.730;9.114;2023-08-08T12:14:54;21.20;51.80
9125;DHT22;4597;48.730;9.114;2023-08-08T12:17:21;21.20;50.10
9125;DHT22;4597;48.730;9.114;2023-08-08T12:19:47;21.20;50.90
9125;DHT22;4597;48.730;9.114;2023-08-08T12:22:14;21.10;50.70
9125;DHT22;4597;48.730;9.114;2023-08-08T12:24:40;21.10;49.90
9125;DHT22;4597;48.730;9.114;2023-08-08T12:27:06;21.10;53.10
9125;DHT22;4597;48.730;9.114;2023-08-08T12:29:31;21.20;54.30
9125;DHT22;4597;48.730;9.114;2023-08-08T12:31:57;21.40;53.90
9125;DHT22;4597;48.730;9.114;2023-08-08T12:34:22;21.50;54.10
9125;DHT22;4597;48.730;9.114;2023-08-08T12:36:48;21.50;53.50
9125;DHT22;4597;48.730;9.114;2023-08-08T12:39:14;21.60;53.90
9125;DHT22;4597;48.730;9.114;2023-08-08T12:41:39;21.70;53.30
9125;DHT22;4597;48.730;9.114;2023-08-08T12:44:05;21.60;51.80
9125;DHT22;4597;48.730;9.114;2023-08-08T12:46:31;21.70;52.00
9125;DHT22;4597;48.730;9.114;2023-08-08T12:48:56;21.70;53.30
9125;DHT22;4597;48.730;9.114;2023-08-08T12:51:22;21.80;54.40
9125;DHT22;4597;48.730;9.114;2023-08-08T12:53:48;21.90;53.80
9125;DHT22;4597;48.730;9.114;2023-08-08T12:56:14;22.00;50.40
9125;DHT22;4597;48.730;9.114;2023-08-08T12:58:39;21.90;49.60
9125;DHT22;4597;48.730;9.114;2023-08-08T13:01:06;22.00;50.90
9125;DHT22;4597;48.730;9.114;2023-08-08T13:03:32;22.00;49.20
9125;DHT22;4597;48.730;9.114;2023-08-08T13:05:59;22.10;49.30
9125;DHT22;4597;48.730;9.114;2023-08-08T13:08:25;22.30;50.10
9125;DHT22;4597;48.730;9.114;2023-08-08T13:10:51;22.40;48.20
9125;DHT22;4597;48.730;9.114;2023-08-08T13:13:16;22.40;48.20
9125;DHT22;4597;48.730;9.114;2023-08-08T13:15:42;22.50;49.50
9125;DHT22;4597;48.730;9.114;2023-08-08T13:18:07;22.70;49.40
9125;DHT22;4597;48.730;9.114;2023-08-08T13:20:33;22.60;48.50
9125;DHT22;4597;48.730;9.114;2023-08-08T13:22:58;22.50;51.30
9125;DHT22;4597;48.730;9.114;2023-08-08T13:25:24;22.60;50.20
9125;DHT22;4597;48.730;9.114;2023-08-08T13:27:49;22.70;50.10
9125;DHT22;4597;48.730;9.114;2023-08-08T13:30:15;22.90;50.70
9125;DHT22;4597;48.730;9.114;2023-08-08T13:32:42;23.20;51.30
9125;DHT22;4597;48.730;9.114;2023-08-08T13:35:07;23.40;50.00
9125;DHT22;4597;48.730;9.114;2023-08-08T13:37:33;23.40;48.00
9125;DHT22;4597;48.730;9.114;2023-08-08T13:39:58;23.60;50.70
9125;DHT22;4597;48.730;9.114;2023-08-08T13:42:24;23.80;48.60
9125;DHT22;4597;48.730;9.114;2023-08-08T13:44:49;24.00;49.30
9125;DHT22;4597;48.730;9.114;2023-08-08T13:47:15;24.10;48.30
9125;DHT22;4597;48.730;9.114;2023-08-08T13:49:40;24.20;48.20
9125;DHT22;4597;48.730;9.114;2023-08-08T13:52:06;24.10;48.20
9125;DHT22;4597;48.730;9.114;2023-08-08T13:54:31;24.00;46.90
9125;DHT22;4597;48.730;9.114;2023-08-08T13:56:57;24.30;47.60
9125;DHT22;4597;48.730;9.114;2023-08-08T13:59:23;24.50;45.70
9125;DHT22;4597;48.730;9.114;2023-08-08T14:01:49;24.40;45.10
9125;DHT22;4597;48.730;9.114;2023-08-08T14:04:14;24.50;47.40
9125;DHT22;4597;48.730;9.114;2023-08-08T14:06:40;24.90;45.40
9125;DHT22;4597;48.730;9.114;2023-08-08T14:09:05;25.20;44.50
9125;DHT22;4597;48.730;9.114;2023-08-08T14:11:31;25.60;44.00
9125;DHT22;4597;48.730;9.114;2023-08-08T14:13:57;25.70;42.70
9125;DHT22;4597;48.730;9.114;2023-08-08T14:16:22;25.50;43.60
9125;DHT22;4597;48.730;9.114;2023-08-08T14:18:48;25.30;43.30
9125;DHT22;4597;48.730;9.114;2023-08-08T14:21:15;24.90;42.70
9125;DHT22;4597;48.730;9.114;2023-08-08T14:23:40;25.10;44.30
9125;DHT22;4597;48.730;9.114;2023-08-08T14:26:06;25.50;43.90
9125;DHT22;4597;48.730;9.114;2023-08-08T14:28:31;25.20;39.60
9125;DHT22;4597;48.730;9.114;2023-08-08T14:30:57;25.10;41.60
9125;DHT22;4597;48.730;9.114;2023-08-08T14:33:22;25.40;40.40
9125;DHT22;4597;48.730;9.114;2023-08-08T14:35:48;25.50;41.40
9125;DHT22;4597;48.730;9.114;2023-08-08T14:38:14;25.50;40.30
9125;DHT22;4597;48.730;9.114;2023-08-08T14:40:39;25.30;40.40
9125;DHT22;4597;48.730;9.114;2023-08-08T14:43:05;25.60;39.00
9125;DHT22;4597;48.730;9.114;2023-08-08T14:45:36;25.70;38.00
9125;DHT22;4597;48.730;9.114;2023-08-08T14:48:04;25.20;40.00
9125;DHT22;4597;48.730;9.114;2023-08-08T14:50:29;25.10;39.10
9125;DHT22;4597;48.730;9.114;2023-08-08T14:52:55;25.30;39.30
9125;DHT22;4597;48.730;9.114;2023-08-08T14:55:20;26.50;37.20
9125;DHT22;4597;48.730;9.114;2023-08-08T14:57:46;27.70;34.80
9125;DHT22;4597;48.730;9.114;2023-08-08T15:00:12;28.50;31.90
9125;DHT22;4597;48.730;9.114;2023-08-08T15:02:38;27.30;32.30
9125;DHT22;4597;48.730;9.114;2023-08-08T15:05:04;25.70;35.70
9125;DHT22;4597;48.730;9.114;2023-08-08T15:07:30;24.80;38.40
9125;DHT22;4597;48.730;9.114;2023-08-08T15:09:55;24.00;40.50
9125;DHT22;4597;48.730;9.114;2023-08-08T15:12:21;24.40;41.00
9125;DHT22;4597;48.730;9.114;2023-08-08T15:14:47;25.20;40.10
9125;DHT22;4597;48.730;9.114;2023-08-08T15:17:14;25.20;38.80
9125;DHT22;4597;48.730;9.114;2023-08-08T15:19:39;24.70;40.40
9125;DHT22;4597;48.730;9.114;2023-08-08T15:22:05;24.30;42.20
9125;DHT22;4597;48.730;9.114;2023-08-08T15:24:31;23.80;42.40
9125;DHT22;4597;48.730;9.114;2023-08-08T15:26:58;23.40;42.60
9125;DHT22;4597;48.730;9.114;2023-08-08T15:29:23;23.20;44.50
9125;DHT22;4597;48.730;9.114;2023-08-08T15:31:49;23.20;44.00
9125;DHT22;4597;48.730;9.114;2023-08-08T15:34:14;23.30;44.10
9125;DHT22;4597;48.730;9.114;2023-08-08T15:36:40;23.20;44.90
9125;DHT22;4597;48.730;9.114;2023-08-08T15:39:05;23.30;45.00
9125;DHT22;4597;48.730;9.114;2023-08-08T15:41:31;24.10;44.10
9125;DHT22;4597;48.730;9.114;2023-08-08T15:43:56;24.80;42.10
9125;DHT22;4597;48.730;9.114;2023-08-08T15:46:22;24.80;41.30
9125;DHT22;4597;48.730;9.114;2023-08-08T15:48:47;25.10;40.50
9125;DHT22;4597;48.730;9.114;2023-08-08T15:51:13;25.60;40.10
9125;DHT22;4597;48.730;9.114;2023-08-08T15:53:39;26.00;38.80
9125;DHT22;4597;48.730;9.114;2023-08-08T15:56:04;26.50;39.20
9125;DHT22;4597;48.730;9.114;2023-08-08T15:58:30;26.80;36.60